createdAt,value
2023-04-10T00:02:24.275Z,5.45
2023-04-10T00:04:51.080Z,5.40
2023-04-10T00:07:17.646Z,5.30
2023-04-10T00:09:44.155Z,5.16
2023-04-10T00:12:11.249Z,5.12
2023-04-10T00:14:37.863Z,5.06
2023-04-10T00:17:04.345Z,5.25
2023-04-10T00:19:30.813Z,5.21
2023-04-10T00:21:57.280Z,5.36
2023-04-10T00:24:23.840Z,5.46
2023-04-10T00:26:50.460Z,5.46
2023-04-10T00:29:16.999Z,5.43
2023-04-10T00:31:43.578Z,5.41
2023-04-10T00:34:10.404Z,5.47
2023-04-10T00:36:36.912Z,5.51
2023-04-10T00:39:03.480Z,5.54
2023-04-10T00:41:29.950Z,5.66
2023-04-10T00:43:57.018Z,5.65
2023-04-10T00:46:24.270Z,5.63
2023-04-10T00:48:51.147Z,5.62
2023-04-10T00:51:19.243Z,5.58
2023-04-10T00:53:46.197Z,5.55
2023-04-10T00:56:12.967Z,5.50
2023-04-10T00:58:39.494Z,5.54
2023-04-10T01:01:06.208Z,5.54
2023-04-10T01:03:32.873Z,5.57
2023-04-10T01:06:18.187Z,5.54
2023-04-10T01:08:53.538Z,5.50
2023-04-10T01:11:28.107Z,5.50
2023-04-10T01:14:06.486Z,5.53
2023-04-10T01:16:38.936Z,5.59
2023-04-10T01:19:23.753Z,5.69
2023-04-10T01:21:50.301Z,5.74
2023-04-10T01:24:49.675Z,5.68
2023-04-10T01:27:16.188Z,5.60
2023-04-10T01:29:46.879Z,5.41
2023-04-10T01:32:14.890Z,5.25
2023-04-10T01:34:45.792Z,5.12
2023-04-10T01:37:15.765Z,4.95
2023-04-10T01:39:42.442Z,4.99
2023-04-10T01:42:10.245Z,4.85
2023-04-10T01:44:36.946Z,4.65
2023-04-10T01:47:03.436Z,4.65
2023-04-10T01:49:29.964Z,4.70
2023-04-10T01:51:58.378Z,4.53
2023-04-10T01:54:27.245Z,4.56
2023-04-10T01:56:53.703Z,4.51
2023-04-10T01:59:20.460Z,4.32
2023-04-10T02:01:47.109Z,4.45
2023-04-10T02:04:13.698Z,4.37
2023-04-10T02:06:48.552Z,4.33
2023-04-10T02:09:28.997Z,4.37
2023-04-10T02:11:58.913Z,4.46
2023-04-10T02:14:25.922Z,4.33
2023-04-10T02:16:54.020Z,4.21
2023-04-10T02:19:20.572Z,3.96
2023-04-10T02:21:47.168Z,4.13
2023-04-10T02:24:13.673Z,4.17
2023-04-10T02:26:51.020Z,4.05
2023-04-10T02:29:17.643Z,3.92
2023-04-10T02:31:44.542Z,3.89
2023-04-10T02:34:11.763Z,3.80
2023-04-10T02:36:39.018Z,3.92
2023-04-10T02:39:05.785Z,3.79
2023-04-10T02:41:32.325Z,3.69
2023-04-10T02:43:58.804Z,3.79
2023-04-10T02:46:25.358Z,3.69
2023-04-10T02:48:52.492Z,3.67
2023-04-10T02:51:19.237Z,3.76
2023-04-10T02:53:45.720Z,3.83
2023-04-10T02:56:12.513Z,3.76
2023-04-10T02:58:40.045Z,3.64
2023-04-10T03:01:09.657Z,3.76
2023-04-10T03:03:36.244Z,3.70
2023-04-10T03:06:02.819Z,3.74
2023-04-10T03:08:30.369Z,3.88
2023-04-10T03:10:56.859Z,3.85
2023-04-10T03:13:23.531Z,3.82
2023-04-10T03:15:50.267Z,3.66
2023-04-10T03:18:16.761Z,3.69
2023-04-10T03:20:44.943Z,3.69
2023-04-10T03:23:11.635Z,3.75
2023-04-10T03:25:38.374Z,4.02
2023-04-10T03:28:04.945Z,3.76
2023-04-10T03:30:31.429Z,3.81
2023-04-10T03:32:57.894Z,3.80
2023-04-10T03:35:24.386Z,3.90
2023-04-10T03:37:50.862Z,3.80
2023-04-10T03:40:17.415Z,3.74
2023-04-10T03:42:43.891Z,3.61
2023-04-10T03:45:11.113Z,3.48
2023-04-10T03:47:37.602Z,3.56
2023-04-10T03:50:04.487Z,3.58
2023-04-10T03:52:31.186Z,3.56
2023-04-10T03:54:57.734Z,3.60
2023-04-10T03:57:24.189Z,3.45
2023-04-10T03:59:51.595Z,3.55
2023-04-10T04:02:18.168Z,3.64
2023-04-10T04:04:44.870Z,3.69
2023-04-10T04:07:12.600Z,3.68
2023-04-10T04:09:39.545Z,3.54
2023-04-10T04:12:06.069Z,3.61
2023-04-10T04:14:32.554Z,3.65
2023-04-10T04:16:59.098Z,3.76
2023-04-10T04:19:25.837Z,3.65
2023-04-10T04:21:52.458Z,3.51
2023-04-10T04:24:18.952Z,3.42
2023-04-10T04:26:45.409Z,3.50
2023-04-10T04:29:12.164Z,3.50
2023-04-10T04:31:38.683Z,3.53
2023-04-10T04:34:05.208Z,3.61
2023-04-10T04:36:31.853Z,3.52
2023-04-10T04:38:58.309Z,3.44
2023-04-10T04:41:24.812Z,3.57
2023-04-10T04:43:53.579Z,3.61
2023-04-10T04:46:20.312Z,3.46
2023-04-10T04:48:46.820Z,3.50
2023-04-10T04:51:13.313Z,3.51
2023-04-10T04:53:39.820Z,3.59
2023-04-10T04:56:06.627Z,3.69
2023-04-10T04:58:33.089Z,3.72
2023-04-10T05:00:59.599Z,3.90
2023-04-10T05:03:26.313Z,4.05
2023-04-10T05:05:52.914Z,4.26
2023-04-10T05:08:19.365Z,4.44
2023-04-10T05:10:46.096Z,4.49
2023-04-10T05:13:12.657Z,4.67
2023-04-10T05:15:39.404Z,4.92
2023-04-10T05:18:06.170Z,5.04
2023-04-10T05:20:34.958Z,5.27
2023-04-10T05:23:01.448Z,5.38
2023-04-10T05:25:27.920Z,5.52
2023-04-10T05:27:54.387Z,5.52
2023-04-10T05:30:20.884Z,5.55
2023-04-10T05:32:47.445Z,5.48
2023-04-10T05:35:13.962Z,5.44
2023-04-10T05:37:40.529Z,5.49
2023-04-10T05:40:07.790Z,5.54
2023-04-10T05:42:34.280Z,5.67
2023-04-10T05:45:00.805Z,5.78
2023-04-10T05:47:27.325Z,6.01
2023-04-10T05:49:53.899Z,6.18
2023-04-10T05:52:20.661Z,6.38
2023-04-10T05:54:47.307Z,6.51
2023-04-10T05:57:13.783Z,6.56
2023-04-10T05:59:40.292Z,6.57
2023-04-10T06:02:06.877Z,6.62
2023-04-10T06:04:33.648Z,6.63
2023-04-10T06:07:01.167Z,6.62
2023-04-10T06:09:27.668Z,6.75
2023-04-10T06:11:54.189Z,6.84
2023-04-10T06:14:20.997Z,6.98
2023-04-10T06:16:47.480Z,7.12
2023-04-10T06:19:13.934Z,7.26
2023-04-10T06:21:40.403Z,7.43
2023-04-10T06:24:07.684Z,7.58
2023-04-10T06:26:34.187Z,7.75
2023-04-10T06:29:00.685Z,7.82
2023-04-10T06:31:27.324Z,7.94
2023-04-10T06:33:53.877Z,8.09
2023-04-10T06:36:20.575Z,8.29
2023-04-10T06:38:47.166Z,8.39
2023-04-10T06:41:13.702Z,8.63
2023-04-10T06:43:40.290Z,8.82
2023-04-10T06:46:06.901Z,8.71
2023-04-10T06:48:33.460Z,8.69
2023-04-10T06:51:02.829Z,8.44
2023-04-10T06:53:29.329Z,8.80
2023-04-10T06:55:56.778Z,8.77
2023-04-10T06:58:24.370Z,8.72
2023-04-10T07:00:51.001Z,8.97
2023-04-10T07:03:17.558Z,9.16
2023-04-10T07:05:44.098Z,9.36
2023-04-10T07:08:10.567Z,9.34
2023-04-10T07:10:37.409Z,9.40
2023-04-10T07:13:04.369Z,9.64
2023-04-10T07:15:30.850Z,9.70
2023-04-10T07:17:57.399Z,9.75
2023-04-10T07:20:23.904Z,9.91
2023-04-10T07:22:50.378Z,9.98
2023-04-10T07:25:18.349Z,10.10
2023-04-10T07:27:44.890Z,10.25
2023-04-10T07:30:13.568Z,10.41
2023-04-10T07:32:42.097Z,10.57
2023-04-10T07:35:09.250Z,10.73
2023-04-10T07:37:35.930Z,10.75
2023-04-10T07:40:02.687Z,10.76
2023-04-10T07:42:29.260Z,10.77
2023-04-10T07:44:56.087Z,10.98
2023-04-10T07:47:22.601Z,11.17
2023-04-10T07:49:49.363Z,11.27
2023-04-10T07:52:18.605Z,11.35
2023-04-10T07:54:46.785Z,11.62
2023-04-10T07:57:13.321Z,11.81
2023-04-10T07:59:39.832Z,11.79
2023-04-10T08:02:06.700Z,11.87
2023-04-10T08:04:33.718Z,11.94
2023-04-10T08:07:01.128Z,12.02
2023-04-10T08:09:27.596Z,12.19
2023-04-10T08:11:54.124Z,12.04
2023-04-10T08:14:20.662Z,12.30
2023-04-10T08:16:47.449Z,12.25
2023-04-10T08:19:13.935Z,12.56
2023-04-10T08:21:40.410Z,12.39
2023-04-10T08:24:06.929Z,12.21
2023-04-10T08:26:33.426Z,12.32
2023-04-10T08:29:00.687Z,12.39
2023-04-10T08:31:28.075Z,12.22
2023-04-10T08:33:55.167Z,12.54
2023-04-10T08:36:22.085Z,12.75
2023-04-10T08:38:48.705Z,12.29
2023-04-10T08:41:16.451Z,12.50
2023-04-10T08:43:43.819Z,12.44
2023-04-10T08:46:10.587Z,12.54
2023-04-10T08:49:01.433Z,12.62
2023-04-10T08:51:32.196Z,12.62
2023-04-10T08:54:06.584Z,12.57
2023-04-10T08:56:33.244Z,12.88
2023-04-10T08:59:00.650Z,12.86
2023-04-10T09:01:27.192Z,12.88
2023-04-10T09:03:53.990Z,13.16
2023-04-10T09:06:20.922Z,13.32
2023-04-10T09:08:47.384Z,13.24
2023-04-10T09:11:14.447Z,13.09
2023-04-10T09:13:44.573Z,13.36
2023-04-10T09:16:11.380Z,13.61
2023-04-10T09:18:42.493Z,13.64
2023-04-10T09:21:13.395Z,13.58
2023-04-10T09:23:40.993Z,13.49
2023-04-10T09:26:29.889Z,13.77
2023-04-10T09:29:00.898Z,13.99
2023-04-10T09:31:28.940Z,14.29
2023-04-10T09:34:08.144Z,14.20
2023-04-10T09:36:36.773Z,14.21
2023-04-10T09:39:05.271Z,14.27
2023-04-10T09:41:31.798Z,14.41
2023-04-10T09:44:09.223Z,14.35
2023-04-10T09:46:35.779Z,14.17
2023-04-10T09:49:05.091Z,14.18
2023-04-10T09:51:32.234Z,14.09
2023-04-10T09:53:58.722Z,14.04
2023-04-10T09:56:26.281Z,14.08
2023-04-10T09:58:52.985Z,14.70
2023-04-10T10:01:20.829Z,14.97
2023-04-10T10:03:47.625Z,14.99
2023-04-10T10:06:14.164Z,14.78
2023-04-10T10:08:40.629Z,14.81
2023-04-10T10:11:09.973Z,14.65
2023-04-10T10:13:48.677Z,14.90
2023-04-10T10:16:25.645Z,14.88
2023-04-10T10:19:01.300Z,15.08
2023-04-10T10:21:28.532Z,15.19
2023-04-10T10:23:55.639Z,15.06
2023-04-10T10:26:23.312Z,15.20
2023-04-10T10:28:51.118Z,15.08
2023-04-10T10:31:18.268Z,15.41
2023-04-10T10:33:45.020Z,15.10
2023-04-10T10:36:13.830Z,15.29
2023-04-10T10:38:41.846Z,15.39
2023-04-10T10:41:23.621Z,15.23
2023-04-10T10:44:19.398Z,15.23
2023-04-10T10:46:54.562Z,15.03
2023-04-10T10:49:21.060Z,15.57
2023-04-10T10:51:50.977Z,15.58
2023-04-10T10:54:37.617Z,16.07
2023-04-10T10:57:09.186Z,16.33
2023-04-10T10:59:47.708Z,16.33
2023-04-10T11:02:17.666Z,16.02
2023-04-10T11:04:47.676Z,16.18
2023-04-10T11:07:14.748Z,16.62
2023-04-10T11:09:51.637Z,17.02
2023-04-10T11:12:24.797Z,16.80
2023-04-10T11:15:06.447Z,16.66
2023-04-10T11:17:52.536Z,16.34
2023-04-10T11:20:20.907Z,16.40
2023-04-10T11:23:06.596Z,16.49
2023-04-10T11:25:51.950Z,16.56
2023-04-10T11:28:37.783Z,16.22
2023-04-10T11:31:19.545Z,16.14
2023-04-10T11:33:47.246Z,16.22
2023-04-10T11:36:20.396Z,15.75
2023-04-10T11:39:00.761Z,16.08
2023-04-10T11:41:34.270Z,15.37
2023-04-10T11:44:01.981Z,15.56
2023-04-10T11:46:29.021Z,15.95
2023-04-10T11:48:57.047Z,15.92
2023-04-10T11:51:23.602Z,15.95
2023-04-10T11:53:50.342Z,16.12
2023-04-10T11:56:21.675Z,16.30
2023-04-10T11:58:49.930Z,15.93
2023-04-10T12:01:16.611Z,16.24
2023-04-10T12:03:43.842Z,16.26
2023-04-10T12:06:11.918Z,15.95
2023-04-10T12:08:39.985Z,15.75
2023-04-10T12:11:07.309Z,15.90
2023-04-10T12:13:33.828Z,16.09
2023-04-10T12:16:01.731Z,16.14
2023-04-10T12:18:29.594Z,16.44
2023-04-10T12:20:57.638Z,16.41
2023-04-10T12:23:24.129Z,16.24
2023-04-10T12:25:50.829Z,15.98
2023-04-10T12:28:21.368Z,16.04
2023-04-10T12:30:54.983Z,16.21
2023-04-10T12:33:24.818Z,16.13
2023-04-10T12:35:52.051Z,15.99
2023-04-10T12:38:37.501Z,16.03
2023-04-10T12:41:04.091Z,16.22
2023-04-10T12:43:38.360Z,16.15
2023-04-10T12:46:05.473Z,16.04
2023-04-10T12:48:32.091Z,16.12
2023-04-10T12:50:58.662Z,16.28
2023-04-10T12:53:25.474Z,16.35
2023-04-10T12:56:05.014Z,16.26
2023-04-10T12:58:31.618Z,16.42
2023-04-10T13:01:05.993Z,16.82
2023-04-10T13:03:36.766Z,16.83
2023-04-10T13:06:06.088Z,16.79
2023-04-10T13:08:32.604Z,16.82
2023-04-10T13:11:07.094Z,16.64
2023-04-10T13:13:33.595Z,16.72
2023-04-10T13:16:00.345Z,16.39
2023-04-10T13:18:26.944Z,16.65
2023-04-10T13:20:53.430Z,16.59
2023-04-10T13:23:19.905Z,16.73
2023-04-10T13:25:46.795Z,16.96
2023-04-10T13:28:13.266Z,17.06
2023-04-10T13:30:40.584Z,17.19
2023-04-10T13:33:07.782Z,17.37
2023-04-10T13:35:34.379Z,17.81
2023-04-10T13:38:00.957Z,17.62
2023-04-10T13:40:27.482Z,18.07
2023-04-10T13:42:53.966Z,17.96
2023-04-10T13:45:20.549Z,17.94
2023-04-10T13:47:47.046Z,16.95
2023-04-10T13:50:13.565Z,17.14
2023-04-10T13:52:40.102Z,16.77
2023-04-10T13:55:07.179Z,16.91
2023-04-10T13:57:34.256Z,17.04
2023-04-10T14:00:01.270Z,16.94
2023-04-10T14:02:27.964Z,16.85
2023-04-10T14:04:54.561Z,17.21
2023-04-10T14:07:21.129Z,17.13
2023-04-10T14:09:48.450Z,16.99
2023-04-10T14:12:16.382Z,17.75
2023-04-10T14:14:43.988Z,18.28
2023-04-10T14:17:10.547Z,17.62
2023-04-10T14:19:37.405Z,17.03
2023-04-10T14:22:03.932Z,16.86
2023-04-10T14:24:30.442Z,17.03
2023-04-10T14:27:00.670Z,16.81
2023-04-10T14:29:37.487Z,17.35
2023-04-10T14:32:05.935Z,17.63
2023-04-10T14:34:32.490Z,17.53
2023-04-10T14:36:59.633Z,17.37
2023-04-10T14:39:26.171Z,17.23
2023-04-10T14:41:52.671Z,17.08
2023-04-10T14:44:19.436Z,17.12
2023-04-10T14:46:46.288Z,17.23
2023-04-10T14:49:13.824Z,16.78
2023-04-10T14:51:42.976Z,16.84
2023-04-10T14:54:09.492Z,16.72
2023-04-10T14:56:36.091Z,16.68
2023-04-10T14:59:02.553Z,16.64
2023-04-10T15:01:29.078Z,16.35
2023-04-10T15:03:55.893Z,16.34
2023-04-10T15:06:22.563Z,16.27
2023-04-10T15:08:49.027Z,16.35
2023-04-10T15:11:15.491Z,16.07
2023-04-10T15:13:41.961Z,15.98
2023-04-10T15:16:08.454Z,15.96
2023-04-10T15:18:34.915Z,15.97
2023-04-10T15:21:01.378Z,15.96
2023-04-10T15:23:27.859Z,15.93
2023-04-10T15:25:54.949Z,15.88
2023-04-10T15:28:21.413Z,15.73
2023-04-10T15:30:49.683Z,15.70
2023-04-10T15:33:17.028Z,15.62
2023-04-10T15:35:48.634Z,15.45
2023-04-10T15:38:15.139Z,15.47
2023-04-10T15:40:41.643Z,15.31
2023-04-10T15:43:08.124Z,15.46
2023-04-10T15:45:35.882Z,15.36
2023-04-10T15:48:04.472Z,15.51
2023-04-10T15:50:31.108Z,15.39
2023-04-10T15:52:57.592Z,15.44
2023-04-10T15:55:24.119Z,15.51
2023-04-10T15:57:50.629Z,15.61
2023-04-10T16:00:17.323Z,15.67
2023-04-10T16:02:44.131Z,15.58
2023-04-10T16:05:10.881Z,15.51
2023-04-10T16:07:38.953Z,15.55
2023-04-10T16:10:06.171Z,15.41
2023-04-10T16:12:32.678Z,15.41
2023-04-10T16:14:59.208Z,15.32
2023-04-10T16:17:25.736Z,15.36
2023-04-10T16:19:52.514Z,15.28
2023-04-10T16:22:18.976Z,15.45
2023-04-10T16:24:45.639Z,15.51
2023-04-10T16:27:13.172Z,15.59
2023-04-10T16:29:39.664Z,15.55
2023-04-10T16:32:06.115Z,15.56
2023-04-10T16:34:32.616Z,15.49
2023-04-10T16:36:59.090Z,15.41
2023-04-10T16:39:25.722Z,15.25
2023-04-10T16:41:52.229Z,15.24
2023-04-10T16:44:18.688Z,15.27
2023-04-10T16:46:45.468Z,15.31
2023-04-10T16:49:12.044Z,15.29
2023-04-10T16:51:38.569Z,15.40
2023-04-10T16:54:05.200Z,15.35
2023-04-10T16:56:32.592Z,15.38
2023-04-10T16:58:59.063Z,15.25
2023-04-10T17:01:25.846Z,15.12
2023-04-10T17:03:52.756Z,15.07
2023-04-10T17:06:19.278Z,15.07
2023-04-10T17:08:46.003Z,15.05
2023-04-10T17:11:12.744Z,14.97
2023-04-10T17:13:40.385Z,14.98
2023-04-10T17:16:07.793Z,15.03
2023-04-10T17:18:34.260Z,15.02
2023-04-10T17:21:00.873Z,15.02
2023-04-10T17:23:27.329Z,14.89
2023-04-10T17:25:53.954Z,14.87
2023-04-10T17:28:20.651Z,14.78
2023-04-10T17:30:48.384Z,14.78
2023-04-10T17:33:14.926Z,14.65
2023-04-10T17:35:42.001Z,14.60
2023-04-10T17:38:08.568Z,14.55
2023-04-10T17:40:35.122Z,14.58
2023-04-10T17:43:01.679Z,14.53
2023-04-10T17:45:28.138Z,14.54
2023-04-10T17:47:54.740Z,14.50
2023-04-10T17:50:21.327Z,14.46
2023-04-10T17:52:47.817Z,14.46
2023-04-10T17:55:18.351Z,14.42
2023-04-10T17:57:47.128Z,14.40
2023-04-10T18:00:15.568Z,14.38
2023-04-10T18:02:43.113Z,14.34
2023-04-10T18:05:09.689Z,14.31
2023-04-10T18:07:36.183Z,14.35
2023-04-10T18:10:02.674Z,14.34
2023-04-10T18:12:29.431Z,14.26
2023-04-10T18:14:56.102Z,14.28
2023-04-10T18:17:22.592Z,14.11
2023-04-10T18:19:52.967Z,14.16
2023-04-10T18:22:19.441Z,14.11
2023-04-10T18:24:47.039Z,14.05
2023-04-10T18:27:13.531Z,14.07
2023-04-10T18:29:41.179Z,14.03
2023-04-10T18:32:07.704Z,14.10
2023-04-10T18:34:34.209Z,14.04
2023-04-10T18:37:00.712Z,14.04
2023-04-10T18:39:27.170Z,14.09
2023-04-10T18:41:53.615Z,14.07
2023-04-10T18:44:20.235Z,14.07
2023-04-10T18:46:53.857Z,14.02
2023-04-10T18:49:24.226Z,14.06
2023-04-10T18:51:50.722Z,14.00
2023-04-10T18:54:17.236Z,14.01
2023-04-10T18:56:43.694Z,14.07
2023-04-10T18:59:10.178Z,14.04
2023-04-10T19:01:37.059Z,14.00
2023-04-10T19:04:03.681Z,14.01
2023-04-10T19:06:32.012Z,13.94
2023-04-10T19:08:58.643Z,13.87
2023-04-10T19:11:25.419Z,13.92
2023-04-10T19:13:51.932Z,13.94
2023-04-10T19:16:19.540Z,13.91
2023-04-10T19:18:49.266Z,13.84
2023-04-10T19:21:15.736Z,13.84
2023-04-10T19:23:42.228Z,13.74
2023-04-10T19:26:09.748Z,13.76
2023-04-10T19:28:36.389Z,13.77
2023-04-10T19:31:02.938Z,13.79
2023-04-10T19:33:29.944Z,13.79
2023-04-10T19:35:57.877Z,13.67
2023-04-10T19:38:24.410Z,13.71
2023-04-10T19:40:50.867Z,13.81
2023-04-10T19:43:17.637Z,13.74
2023-04-10T19:45:44.154Z,13.71
2023-04-10T19:48:10.794Z,13.67
2023-04-10T19:50:37.292Z,13.59
2023-04-10T19:53:04.158Z,13.70
2023-04-10T19:55:31.549Z,13.67
2023-04-10T19:57:58.035Z,13.64
2023-04-10T20:00:24.496Z,13.72
2023-04-10T20:02:51.263Z,13.69
2023-04-10T20:05:17.949Z,13.75
2023-04-10T20:07:44.431Z,13.89
2023-04-10T20:10:11.872Z,13.87
2023-04-10T20:12:38.412Z,13.78
2023-04-10T20:15:05.546Z,13.67
2023-04-10T20:17:32.281Z,13.60
2023-04-10T20:19:58.783Z,13.60
2023-04-10T20:22:25.568Z,13.57
2023-04-10T20:24:52.068Z,13.57
2023-04-10T20:27:18.548Z,13.51
2023-04-10T20:29:45.064Z,13.44
2023-04-10T20:32:11.571Z,13.32
2023-04-10T20:34:38.297Z,13.39
2023-04-10T20:37:05.547Z,13.47
2023-04-10T20:39:32.899Z,13.33
2023-04-10T20:41:59.415Z,13.31
2023-04-10T20:44:25.946Z,13.40
2023-04-10T20:46:52.520Z,13.35
2023-04-10T20:49:19.113Z,13.10
2023-04-10T20:51:45.558Z,12.95
2023-04-10T20:54:12.029Z,12.96
2023-04-10T20:56:43.239Z,12.55
2023-04-10T20:59:10.579Z,12.13
2023-04-10T21:01:37.295Z,11.62
2023-04-10T21:04:03.957Z,11.13
2023-04-10T21:06:32.240Z,10.95
2023-04-10T21:08:58.699Z,10.69
2023-04-10T21:11:28.250Z,10.57
2023-04-10T21:13:54.745Z,10.48
2023-04-10T21:16:21.325Z,10.41
2023-04-10T21:18:47.946Z,10.46
2023-04-10T21:21:14.498Z,10.45
2023-04-10T21:23:41.001Z,10.41
2023-04-10T21:26:07.720Z,10.39
2023-04-10T21:28:34.225Z,10.36
2023-04-10T21:31:00.779Z,10.47
2023-04-10T21:33:27.282Z,10.22
2023-04-10T21:35:53.835Z,10.19
2023-04-10T21:38:20.356Z,10.15
2023-04-10T21:40:50.980Z,9.97
2023-04-10T21:43:17.448Z,10.06
2023-04-10T21:45:44.026Z,9.96
2023-04-10T21:48:10.630Z,9.91
2023-04-10T21:50:37.159Z,9.79
2023-04-10T21:53:03.661Z,9.86
2023-04-10T21:55:30.161Z,10.00
2023-04-10T21:57:56.710Z,9.99
2023-04-10T22:00:23.348Z,10.03
2023-04-10T22:02:50.192Z,9.85
2023-04-10T22:05:16.828Z,9.68
2023-04-10T22:07:43.290Z,9.67
2023-04-10T22:10:09.861Z,9.77
2023-04-10T22:12:36.404Z,9.59
2023-04-10T22:15:03.598Z,9.61
2023-04-10T22:17:30.253Z,9.65
2023-04-10T22:19:56.759Z,9.44
2023-04-10T22:22:23.219Z,9.50
2023-04-10T22:24:49.699Z,9.59
2023-04-10T22:27:16.180Z,9.52
2023-04-10T22:29:47.491Z,9.44
2023-04-10T22:32:14.244Z,9.58
2023-04-10T22:34:40.701Z,9.65
2023-04-10T22:37:07.170Z,9.44
2023-04-10T22:39:33.632Z,9.40
2023-04-10T22:42:00.123Z,9.51
2023-04-10T22:44:26.588Z,9.41
2023-04-10T22:46:53.051Z,9.38
2023-04-10T22:49:19.519Z,9.43
2023-04-10T22:51:45.986Z,9.51
2023-04-10T22:54:12.835Z,9.47
2023-04-10T22:56:39.417Z,9.53
2023-04-10T22:59:05.885Z,9.58
2023-04-10T23:01:32.393Z,9.24
2023-04-10T23:03:58.899Z,9.38
2023-04-10T23:06:25.644Z,9.39
2023-04-10T23:08:52.324Z,9.39
2023-04-10T23:11:18.900Z,9.31
2023-04-10T23:13:45.404Z,9.38
2023-04-10T23:16:11.992Z,9.40
2023-04-10T23:18:38.917Z,9.29
2023-04-10T23:21:06.800Z,9.12
2023-04-10T23:23:33.372Z,9.09
2023-04-10T23:25:59.985Z,9.13
2023-04-10T23:28:27.256Z,9.08
2023-04-10T23:30:53.759Z,9.11
2023-04-10T23:33:21.631Z,8.85
2023-04-10T23:35:48.115Z,8.97
2023-04-10T23:38:14.621Z,8.90
2023-04-10T23:40:41.086Z,8.96
2023-04-10T23:43:07.565Z,8.77
2023-04-10T23:45:34.073Z,8.68
2023-04-10T23:48:00.605Z,8.64
2023-04-10T23:50:27.597Z,8.73
2023-04-10T23:52:54.146Z,8.57
2023-04-10T23:55:21.606Z,8.40
2023-04-10T23:57:48.098Z,8.45
